createdAt,value
2022-12-19T00:00:06.226Z,17.40
2022-12-19T00:02:37.297Z,16.13
2022-12-19T00:05:04.296Z,16.47
2022-12-19T00:07:30.983Z,15.87
2022-12-19T00:09:57.872Z,16.17
2022-12-19T00:12:24.604Z,16.37
2022-12-19T00:15:00.646Z,14.33
2022-12-19T00:17:28.970Z,18.90
2022-12-19T00:19:58.392Z,16.33
2022-12-19T00:22:25.202Z,15.87
2022-12-19T00:24:52.041Z,14.20
2022-12-19T00:27:18.721Z,15.03
2022-12-19T00:29:45.457Z,17.00
2022-12-19T00:32:13.366Z,16.60
2022-12-19T00:34:42.715Z,14.10
2022-12-19T00:37:09.357Z,15.30
2022-12-19T00:39:36.450Z,15.43
2022-12-19T00:42:03.123Z,16.87
2022-12-19T00:44:29.830Z,15.27
2022-12-19T00:46:56.425Z,15.20
2022-12-19T00:49:23.165Z,13.80
2022-12-19T00:51:49.978Z,17.27
2022-12-19T00:54:16.677Z,13.50
2022-12-19T00:56:43.832Z,16.33
2022-12-19T00:59:10.683Z,16.17
2022-12-19T01:01:41.345Z,17.73
2022-12-19T01:04:29.743Z,16.57
2022-12-19T01:07:01.638Z,16.50
2022-12-19T01:09:29.828Z,16.30
2022-12-19T01:12:15.077Z,15.43
2022-12-19T01:14:41.722Z,17.60
2022-12-19T01:17:08.325Z,17.60
2022-12-19T01:19:38.966Z,15.93
2022-12-19T01:22:08.758Z,15.63
2022-12-19T01:24:35.556Z,16.23
2022-12-19T01:27:02.220Z,17.87
2022-12-19T01:29:28.878Z,19.03
2022-12-19T01:31:56.933Z,19.20
2022-12-19T01:34:23.648Z,15.50
2022-12-19T01:36:50.341Z,17.93
2022-12-19T01:39:17.038Z,16.37
2022-12-19T01:41:45.648Z,15.57
2022-12-19T01:44:12.420Z,16.13
2022-12-19T01:46:43.359Z,18.70
2022-12-19T01:49:22.043Z,17.07
2022-12-19T01:51:53.419Z,19.00
2022-12-19T01:54:22.652Z,18.30
2022-12-19T01:56:52.794Z,18.90
2022-12-19T01:59:22.875Z,17.57
2022-12-19T02:01:52.560Z,17.47
2022-12-19T02:04:19.905Z,15.00
2022-12-19T02:06:47.358Z,17.47
2022-12-19T02:09:14.732Z,18.43
2022-12-19T02:11:41.629Z,19.10
2022-12-19T02:14:08.300Z,16.50
2022-12-19T02:17:03.880Z,17.40
2022-12-19T02:20:07.122Z,17.80
2022-12-19T02:22:42.670Z,17.17
2022-12-19T02:25:48.917Z,16.67
2022-12-19T02:28:44.079Z,19.43
2022-12-19T02:31:19.849Z,19.97
2022-12-19T02:34:16.254Z,21.03
2022-12-19T02:37:10.223Z,18.83
2022-12-19T02:39:43.075Z,19.20
2022-12-19T02:42:12.623Z,17.90
2022-12-19T02:44:45.628Z,19.00
2022-12-19T02:47:13.036Z,19.83
2022-12-19T02:49:39.815Z,18.87
2022-12-19T02:52:20.043Z,18.93
2022-12-19T02:54:49.218Z,19.80
2022-12-19T02:57:28.420Z,17.57
2022-12-19T03:00:02.930Z,17.77
2022-12-19T03:02:35.221Z,21.73
2022-12-19T03:05:22.885Z,19.87
2022-12-19T03:07:56.552Z,19.73
2022-12-19T03:10:34.604Z,20.97
2022-12-19T03:13:33.685Z,20.50
2022-12-19T03:16:01.641Z,20.97
2022-12-19T03:18:28.408Z,19.93
2022-12-19T03:21:05.010Z,18.20
2022-12-19T03:23:32.114Z,20.37
2022-12-19T03:26:04.417Z,19.83
2022-12-19T03:28:43.496Z,20.10
2022-12-19T03:31:11.229Z,21.50
2022-12-19T03:33:38.593Z,20.87
2022-12-19T03:36:08.154Z,20.67
2022-12-19T03:38:36.187Z,19.97
2022-12-19T03:41:04.606Z,18.87
2022-12-19T03:43:32.275Z,18.90
2022-12-19T03:46:03.721Z,20.93
2022-12-19T03:48:43.160Z,18.13
2022-12-19T03:51:25.250Z,20.13
2022-12-19T03:54:03.526Z,18.57
2022-12-19T03:56:45.976Z,18.00
2022-12-19T03:59:34.705Z,19.73
2022-12-19T04:02:03.256Z,20.90
2022-12-19T04:04:31.090Z,20.20
2022-12-19T04:06:58.707Z,19.50
2022-12-19T04:09:25.516Z,19.23
2022-12-19T04:11:55.598Z,20.57
2022-12-19T04:14:32.182Z,19.43
2022-12-19T04:17:20.215Z,18.37
2022-12-19T04:19:55.428Z,21.63
2022-12-19T04:22:44.232Z,18.67
2022-12-19T04:25:14.587Z,19.43
2022-12-19T04:27:48.558Z,20.33
2022-12-19T04:30:17.167Z,19.43
2022-12-19T04:32:43.977Z,19.37
2022-12-19T04:35:10.756Z,20.37
2022-12-19T04:37:37.560Z,19.77
2022-12-19T04:40:06.302Z,18.03
2022-12-19T04:42:33.622Z,19.73
2022-12-19T04:45:04.823Z,21.07
2022-12-19T04:47:31.555Z,20.00
2022-12-19T04:49:58.160Z,20.00
2022-12-19T04:52:24.771Z,19.87
2022-12-19T04:54:51.393Z,20.10
2022-12-19T04:57:18.092Z,17.07
2022-12-19T04:59:44.762Z,20.17
2022-12-19T05:02:11.477Z,19.63
2022-12-19T05:04:38.618Z,16.03
2022-12-19T05:07:05.336Z,19.07
2022-12-19T05:09:32.042Z,20.30
2022-12-19T05:11:58.687Z,17.03
2022-12-19T05:14:25.377Z,18.87
2022-12-19T05:16:54.833Z,17.13
2022-12-19T05:19:25.635Z,17.47
2022-12-19T05:21:52.444Z,18.00
2022-12-19T05:24:19.058Z,18.30
2022-12-19T05:26:45.741Z,16.17
2022-12-19T05:29:12.569Z,18.20
2022-12-19T05:31:39.326Z,17.73
2022-12-19T05:34:06.033Z,17.77
2022-12-19T05:36:32.909Z,16.93
2022-12-19T05:38:59.665Z,17.07
2022-12-19T05:41:26.305Z,18.10
2022-12-19T05:43:54.826Z,15.43
2022-12-19T05:46:23.184Z,18.13
2022-12-19T05:48:50.084Z,17.57
2022-12-19T05:51:17.533Z,17.23
2022-12-19T05:53:44.766Z,17.33
2022-12-19T05:56:20.613Z,17.50
2022-12-19T05:58:47.713Z,18.23
2022-12-19T06:01:20.460Z,18.33
2022-12-19T06:03:47.410Z,17.73
2022-12-19T06:06:16.872Z,17.30
2022-12-19T06:08:44.246Z,16.47
2022-12-19T06:11:12.471Z,17.30
2022-12-19T06:13:39.240Z,16.27
2022-12-19T06:16:15.023Z,17.30
2022-12-19T06:18:44.836Z,15.73
2022-12-19T06:21:20.739Z,18.00
2022-12-19T06:23:47.634Z,17.53
2022-12-19T06:26:19.544Z,15.87
2022-12-19T06:28:47.450Z,19.33
2022-12-19T06:31:15.337Z,16.93
2022-12-19T06:33:42.604Z,18.33
2022-12-19T06:36:16.540Z,19.13
2022-12-19T06:38:43.166Z,19.23
2022-12-19T06:41:29.441Z,18.50
2022-12-19T06:44:00.122Z,17.47
2022-12-19T06:46:27.409Z,17.90
2022-12-19T06:48:54.076Z,17.67
2022-12-19T06:51:20.972Z,16.00
2022-12-19T06:53:47.610Z,17.30
2022-12-19T06:56:15.803Z,16.80
2022-12-19T06:58:42.785Z,15.57
2022-12-19T07:01:20.257Z,17.03
2022-12-19T07:03:47.901Z,16.90
2022-12-19T07:06:15.382Z,17.20
2022-12-19T07:08:42.460Z,18.20
2022-12-19T07:11:09.267Z,15.37
2022-12-19T07:13:36.923Z,16.20
2022-12-19T07:16:05.648Z,19.03
2022-12-19T07:18:35.590Z,17.90
2022-12-19T07:21:02.835Z,17.23
2022-12-19T07:23:31.202Z,18.13
2022-12-19T07:25:58.368Z,17.63
2022-12-19T07:28:25.239Z,17.83
2022-12-19T07:30:51.870Z,17.53
2022-12-19T07:33:21.588Z,19.23
2022-12-19T07:35:49.245Z,16.10
2022-12-19T07:38:16.114Z,19.33
2022-12-19T07:40:42.960Z,18.17
2022-12-19T07:43:10.676Z,16.27
2022-12-19T07:45:38.413Z,18.03
2022-12-19T07:48:06.441Z,18.20
2022-12-19T07:50:33.363Z,16.80
2022-12-19T07:53:00.506Z,18.50
2022-12-19T07:55:27.303Z,17.80
2022-12-19T07:57:55.382Z,19.03
2022-12-19T08:00:22.482Z,16.70
2022-12-19T08:02:49.589Z,17.57
2022-12-19T08:05:16.485Z,17.97
2022-12-19T08:07:43.200Z,15.80
2022-12-19T08:10:11.485Z,18.20
2022-12-19T08:12:38.307Z,16.13
2022-12-19T08:15:05.815Z,17.63
2022-12-19T08:17:34.445Z,17.87
2022-12-19T08:20:01.694Z,17.27
2022-12-19T08:22:30.549Z,18.30
2022-12-19T08:24:57.747Z,17.60
2022-12-19T08:27:24.555Z,20.00
2022-12-19T08:29:51.627Z,19.60
2022-12-19T08:32:21.259Z,17.43
2022-12-19T08:34:49.988Z,18.60
2022-12-19T08:37:17.503Z,15.77
2022-12-19T08:39:44.422Z,15.37
2022-12-19T08:42:11.254Z,19.30
2022-12-19T08:44:38.212Z,18.03
2022-12-19T08:47:04.978Z,19.73
2022-12-19T08:49:34.569Z,15.33
2022-12-19T08:52:03.386Z,17.07
2022-12-19T08:54:30.091Z,17.97
2022-12-19T08:56:56.750Z,16.77
2022-12-19T08:59:30.318Z,18.77
2022-12-19T09:02:00.065Z,20.00
2022-12-19T09:05:57.273Z,17.70
2022-12-19T09:07:15.563Z,19.40
2022-12-19T09:09:43.520Z,17.83
2022-12-19T09:12:10.342Z,16.23
2022-12-19T09:14:37.226Z,17.63
2022-12-19T09:17:04.824Z,17.13
2022-12-19T09:19:32.539Z,17.20
2022-12-19T09:21:59.658Z,17.90
2022-12-19T09:24:26.687Z,18.27
2022-12-19T09:26:53.672Z,16.10
2022-12-19T09:29:21.943Z,18.03
2022-12-19T09:32:03.033Z,18.07
2022-12-19T09:34:58.222Z,17.50
2022-12-19T09:37:46.231Z,17.97
2022-12-19T09:40:24.754Z,17.83
2022-12-19T09:43:43.792Z,18.97
2022-12-19T09:46:34.368Z,16.23
2022-12-19T09:57:36.643Z,17.57
2022-12-19T10:00:08.284Z,18.80
2022-12-19T10:02:53.893Z,17.03
2022-12-19T10:06:48.483Z,16.10
2022-12-19T10:08:26.117Z,18.13
2022-12-19T10:12:39.581Z,17.13
2022-12-19T10:14:07.848Z,19.33
2022-12-19T10:17:24.094Z,16.77
2022-12-19T10:20:16.207Z,18.10
2022-12-19T10:23:05.348Z,16.73
2022-12-19T10:25:44.161Z,17.17
2022-12-19T10:28:20.836Z,16.60
2022-12-19T10:31:22.949Z,16.40
2022-12-19T10:34:22.027Z,16.70
2022-12-19T10:39:46.108Z,15.57
2022-12-19T10:42:45.223Z,16.90
2022-12-19T10:45:20.567Z,16.27
2022-12-19T10:48:06.513Z,18.33
2022-12-19T10:50:34.230Z,16.60
2022-12-19T10:53:03.958Z,16.80
2022-12-19T10:55:34.896Z,18.25
2022-12-19T10:58:17.330Z,17.50
2022-12-19T11:01:05.206Z,14.93
2022-12-19T11:03:35.481Z,17.57
2022-12-19T11:06:03.763Z,16.83
2022-12-19T11:08:35.758Z,16.10
2022-12-19T11:14:21.297Z,15.87
2022-12-19T11:19:28.802Z,17.03
2022-12-19T11:19:33.128Z,18.10
2022-12-19T11:29:32.231Z,17.30
2022-12-19T11:29:34.915Z,17.03
2022-12-19T11:30:37.770Z,18.33
2022-12-19T11:30:41.544Z,15.60
2022-12-19T11:34:07.399Z,17.23
2022-12-19T11:36:48.038Z,19.80
2022-12-19T11:39:42.836Z,16.90
2022-12-19T11:42:21.960Z,17.23
2022-12-19T11:44:53.593Z,17.73
2022-12-19T11:47:33.886Z,17.63
2022-12-19T11:50:04.875Z,17.67
2022-12-19T11:55:53.536Z,15.37
2022-12-19T11:58:20.942Z,19.17
2022-12-19T12:00:56.023Z,17.70
2022-12-19T12:03:59.256Z,17.47
2022-12-19T12:06:34.537Z,18.50
2022-12-19T12:14:08.009Z,16.87
2022-12-19T12:23:46.517Z,16.73
2022-12-19T12:28:24.355Z,16.17
2022-12-19T12:31:11.078Z,17.47
2022-12-19T12:31:29.991Z,15.57
2022-12-19T12:31:48.722Z,18.60
2022-12-19T12:32:05.260Z,17.23
2022-12-19T12:35:56.947Z,16.63
2022-12-19T12:40:26.630Z,16.20
2022-12-19T12:43:14.746Z,17.60
2022-12-19T12:45:44.966Z,16.47
2022-12-19T12:48:27.907Z,16.87
2022-12-19T12:50:56.481Z,18.30
2022-12-19T12:53:28.775Z,15.27
2022-12-19T12:55:57.349Z,15.17
2022-12-19T12:58:42.802Z,16.33
2022-12-19T13:01:32.815Z,16.67
2022-12-19T13:04:02.477Z,13.90
2022-12-19T13:06:36.071Z,16.40
2022-12-19T13:09:05.175Z,15.00
2022-12-19T13:12:00.280Z,16.47
2022-12-19T13:14:37.142Z,15.87
2022-12-19T13:17:12.713Z,16.50
2022-12-19T13:20:05.193Z,15.23
2022-12-19T13:22:32.372Z,16.83
2022-12-19T13:25:00.710Z,16.80
2022-12-19T13:27:27.305Z,16.70
2022-12-19T13:29:54.333Z,16.10
2022-12-19T13:32:22.097Z,17.27
2022-12-19T13:35:14.610Z,16.07
2022-12-19T13:39:49.479Z,16.60
2022-12-19T13:40:59.823Z,15.93
2022-12-19T13:43:47.909Z,18.60
2022-12-19T13:46:37.920Z,15.07
2022-12-19T13:49:34.275Z,17.47
2022-12-19T13:52:03.515Z,15.60
2022-12-19T13:54:34.785Z,16.27
2022-12-19T13:57:08.048Z,14.67
2022-12-19T13:59:38.523Z,14.57
2022-12-19T14:02:27.736Z,16.13
2022-12-19T14:04:54.581Z,15.57
2022-12-19T14:07:39.896Z,14.77
2022-12-19T14:11:42.933Z,16.70
2022-12-19T14:13:39.989Z,17.43
2022-12-19T14:16:19.770Z,14.67
2022-12-19T14:18:50.534Z,14.87
2022-12-19T14:22:05.975Z,17.20
2022-12-19T14:24:11.398Z,15.00
2022-12-19T14:28:22.205Z,16.57
2022-12-19T14:29:45.600Z,16.27
2022-12-19T14:33:40.560Z,17.90
2022-12-19T14:36:07.996Z,16.33
2022-12-19T14:39:22.317Z,16.97
2022-12-19T14:41:07.308Z,16.27
2022-12-19T14:43:59.668Z,16.03
2022-12-19T14:51:25.266Z,17.13
2022-12-19T14:54:10.511Z,15.03
2022-12-19T14:54:41.912Z,15.00
2022-12-19T14:56:16.162Z,14.97
2022-12-19T14:58:52.515Z,13.50
2022-12-19T15:01:27.760Z,15.27
2022-12-19T15:04:52.704Z,13.90
2022-12-19T15:07:13.643Z,17.80
2022-12-19T15:10:59.360Z,14.23
2022-12-19T15:14:46.712Z,15.80
2022-12-19T15:15:42.404Z,15.97
2022-12-19T15:18:19.868Z,14.40
2022-12-19T15:20:46.559Z,13.67
2022-12-19T15:23:19.837Z,12.63
2022-12-19T15:26:06.065Z,15.63
2022-12-19T15:28:40.471Z,20.17
2022-12-19T15:31:18.563Z,15.00
2022-12-19T15:34:14.360Z,14.17
2022-12-19T15:36:31.797Z,14.20
2022-12-19T15:38:58.915Z,14.53
2022-12-19T15:41:25.633Z,15.93
2022-12-19T15:44:03.795Z,15.33
2022-12-19T15:46:31.782Z,15.93
2022-12-19T15:48:58.451Z,15.67
2022-12-19T15:51:25.048Z,13.27
2022-12-19T15:53:51.725Z,13.97
2022-12-19T15:56:29.057Z,13.80
2022-12-19T15:58:57.560Z,14.07
2022-12-19T16:01:24.441Z,12.03
2022-12-19T16:03:51.515Z,14.80
2022-12-19T16:06:18.576Z,16.50
2022-12-19T16:08:45.222Z,13.77
2022-12-19T16:11:23.857Z,16.63
2022-12-19T16:13:54.558Z,15.67
2022-12-19T16:16:21.728Z,19.03
2022-12-19T16:18:48.795Z,14.83
2022-12-19T16:21:22.595Z,14.70
2022-12-19T16:23:52.125Z,13.73
2022-12-19T16:26:32.848Z,13.43
2022-12-19T16:28:59.754Z,13.57
2022-12-19T16:31:27.582Z,13.57
2022-12-19T16:33:54.416Z,12.57
2022-12-19T16:36:21.594Z,12.97
2022-12-19T16:38:48.586Z,14.67
2022-12-19T16:41:21.637Z,13.20
2022-12-19T16:43:48.597Z,11.80
2022-12-19T16:46:20.816Z,15.77
2022-12-19T16:48:48.385Z,14.00
2022-12-19T16:51:21.283Z,14.17
2022-12-19T16:53:50.611Z,13.60
2022-12-19T16:56:36.462Z,12.23
2022-12-19T17:00:01.883Z,14.10
2022-12-19T17:09:25.503Z,12.50
2022-12-19T17:13:21.751Z,13.27
2022-12-19T17:15:27.166Z,12.93
2022-12-19T17:18:12.569Z,15.03
2022-12-19T17:20:48.171Z,14.97
2022-12-19T17:23:18.304Z,14.87
2022-12-19T17:28:51.474Z,15.10
2022-12-19T17:37:49.618Z,14.90
2022-12-19T17:40:21.515Z,14.40
2022-12-19T17:42:48.783Z,12.37
2022-12-19T17:45:16.375Z,13.73
2022-12-19T17:47:44.248Z,14.73
2022-12-19T17:50:24.202Z,11.57
2022-12-19T17:52:51.630Z,14.30
2022-12-19T17:55:24.665Z,14.83
2022-12-19T17:57:51.953Z,14.07
2022-12-19T18:00:26.721Z,12.90
2022-12-19T18:02:57.109Z,15.73
2022-12-19T18:05:28.157Z,13.80
2022-12-19T18:07:55.285Z,16.60
2022-12-19T18:10:27.498Z,13.80
2022-12-19T18:12:54.685Z,13.67
2022-12-19T18:15:22.266Z,14.63
2022-12-19T18:17:50.213Z,15.27
2022-12-19T18:20:31.943Z,15.93
2022-12-19T18:23:00.882Z,16.30
2022-12-19T18:25:30.915Z,14.93
2022-12-19T18:27:58.295Z,18.03
2022-12-19T18:30:25.850Z,13.87
2022-12-19T18:33:00.383Z,13.47
2022-12-19T18:35:34.839Z,13.77
2022-12-19T18:38:04.481Z,13.70
2022-12-19T18:40:31.976Z,13.60
2022-12-19T18:42:59.453Z,15.20
2022-12-19T18:45:36.584Z,16.83
2022-12-19T18:48:06.813Z,15.03
2022-12-19T18:50:34.095Z,13.33
2022-12-19T18:53:01.122Z,14.43
2022-12-19T18:55:29.610Z,14.40
2022-12-19T18:57:56.525Z,13.10
2022-12-19T19:00:25.449Z,14.17
2022-12-19T19:02:53.998Z,14.80
2022-12-19T19:05:24.603Z,15.27
2022-12-19T19:07:51.911Z,15.93
2022-12-19T19:10:24.240Z,14.27
2022-12-19T19:12:51.474Z,15.13
2022-12-19T19:15:23.897Z,13.33
2022-12-19T19:17:57.254Z,11.73
2022-12-19T19:20:25.064Z,16.47
2022-12-19T19:22:53.116Z,15.97
2022-12-19T19:25:20.543Z,12.53
2022-12-19T19:27:47.523Z,16.03
2022-12-19T19:30:14.682Z,15.17
2022-12-19T19:32:47.152Z,13.97
2022-12-19T19:35:16.775Z,15.83
2022-12-19T19:37:44.853Z,15.70
2022-12-19T19:40:12.267Z,14.67
2022-12-19T19:42:39.145Z,15.67
2022-12-19T19:45:06.573Z,16.40
2022-12-19T19:47:36.297Z,14.23
2022-12-19T19:50:07.522Z,14.27
2022-12-19T19:52:34.792Z,13.53
2022-12-19T19:55:01.765Z,12.67
2022-12-19T19:57:28.714Z,14.93
2022-12-19T20:00:04.350Z,14.80
2022-12-19T20:02:49.031Z,14.53
2022-12-19T20:05:16.139Z,13.63
2022-12-19T20:07:43.184Z,12.97
2022-12-19T20:10:10.765Z,12.90
2022-12-19T20:12:37.470Z,15.23
2022-12-19T20:15:05.151Z,11.67
2022-12-19T20:17:31.875Z,13.43
2022-12-19T20:19:58.584Z,13.63
2022-12-19T20:22:25.295Z,12.63
2022-12-19T20:24:52.120Z,12.93
2022-12-19T20:27:18.833Z,14.00
2022-12-19T20:29:45.956Z,13.13
2022-12-19T20:32:14.694Z,13.17
2022-12-19T20:34:41.471Z,14.80
2022-12-19T20:37:08.296Z,14.10
2022-12-19T20:39:35.217Z,12.80
2022-12-19T20:42:02.104Z,13.47
2022-12-19T20:44:29.718Z,12.40
2022-12-19T20:46:56.785Z,14.33
2022-12-19T20:49:23.806Z,13.77
2022-12-19T20:51:50.526Z,13.37
2022-12-19T20:54:18.230Z,13.07
2022-12-19T20:56:45.172Z,11.53
2022-12-19T20:59:12.054Z,11.27
2022-12-19T21:01:39.317Z,12.17
2022-12-19T21:04:06.328Z,12.73
2022-12-19T21:06:33.635Z,13.40
2022-12-19T21:09:00.388Z,13.37
2022-12-19T21:11:30.986Z,12.37
2022-12-19T21:13:57.875Z,13.30
2022-12-19T21:16:24.800Z,12.37
2022-12-19T21:18:52.034Z,11.37
2022-12-19T21:21:24.468Z,13.20
2022-12-19T21:23:51.736Z,11.93
2022-12-19T21:26:22.078Z,11.93
2022-12-19T21:28:48.918Z,10.37
2022-12-19T21:31:22.625Z,11.53
2022-12-19T21:33:51.484Z,12.77
2022-12-19T21:36:21.721Z,11.33
2022-12-19T21:38:50.583Z,12.90
2022-12-19T21:41:19.235Z,11.77
2022-12-19T21:43:47.812Z,11.77
2022-12-19T21:46:16.368Z,12.00
2022-12-19T21:48:45.190Z,11.83
2022-12-19T21:51:13.312Z,11.07
2022-12-19T21:53:40.707Z,10.90
2022-12-19T21:56:26.498Z,12.33
2022-12-19T21:58:56.564Z,12.17
2022-12-19T22:01:24.621Z,11.53
2022-12-19T22:03:52.668Z,12.57
2022-12-19T22:06:27.735Z,11.00
2022-12-19T22:08:55.615Z,11.97
2022-12-19T22:11:22.745Z,10.97
2022-12-19T22:13:50.101Z,10.83
2022-12-19T22:16:17.549Z,11.53
2022-12-19T22:18:45.201Z,10.43
2022-12-19T22:21:13.534Z,10.67
2022-12-19T22:23:41.318Z,11.00
2022-12-19T22:26:09.370Z,10.07
2022-12-19T22:28:38.309Z,12.23
2022-12-19T22:31:15.800Z,11.43
2022-12-19T22:33:42.834Z,12.20
2022-12-19T22:36:12.834Z,11.47
2022-12-19T22:38:46.665Z,13.33
2022-12-19T22:41:14.032Z,10.57
2022-12-19T22:43:40.831Z,11.20
2022-12-19T22:46:21.914Z,12.77
2022-12-19T22:48:50.223Z,13.00
2022-12-19T22:51:18.293Z,13.10
2022-12-19T22:53:49.576Z,11.20
2022-12-19T22:56:18.814Z,10.70
2022-12-19T22:58:47.732Z,12.07
2022-12-19T23:01:29.743Z,12.20
2022-12-19T23:03:58.847Z,12.83
2022-12-19T23:06:27.578Z,14.13
2022-12-19T23:08:54.447Z,11.77
2022-12-19T23:11:23.949Z,13.53
2022-12-19T23:13:50.815Z,12.20
2022-12-19T23:16:18.031Z,11.50
2022-12-19T23:18:44.968Z,11.70
2022-12-19T23:21:14.472Z,12.50
2022-12-19T23:23:42.756Z,12.80
2022-12-19T23:26:15.804Z,13.43
2022-12-19T23:28:43.978Z,11.97
2022-12-19T23:31:12.709Z,11.23
2022-12-19T23:33:39.759Z,11.17
2022-12-19T23:36:06.949Z,11.87
2022-12-19T23:38:34.538Z,9.57
2022-12-19T23:41:08.291Z,11.80
2022-12-19T23:43:36.403Z,13.17
2022-12-19T23:46:21.298Z,12.57
2022-12-19T23:48:55.463Z,9.80
2022-12-19T23:51:27.295Z,10.40
2022-12-19T23:53:55.116Z,11.13
2022-12-19T23:56:24.078Z,11.13
2022-12-19T23:58:50.930Z,10.90
